Time;durP1;ratioP1;P1;durP2;ratioP2;P2;SDS_P1;SDS_P2;PMS_P1;PMS_P2;Temp;Humidity;BMP_temperature;BMP_pressure;BME280_temperature;BME280_humidity;BME280_pressure;Samples;Min_cycle;Max_cycle;Signal;HPM_P1;HPM_P2
2023/12/08 00:01:33;;;;;;;2.65;2.45;;;17.90;59.60;;;;;;4967148;28;20513;-76
2023/12/08 00:03:59;;;;;;;2.72;2.53;;;17.90;59.70;;;;;;4966850;28;20122;-77
2023/12/08 00:06:24;;;;;;;2.60;2.50;;;17.90;59.70;;;;;;4961099;28;20134;-78
2023/12/08 00:08:50;;;;;;;2.90;2.60;;;17.90;59.70;;;;;;4965829;28;20508;-78
2023/12/08 00:11:15;;;;;;;2.47;2.30;;;17.90;59.80;;;;;;4965992;28;20386;-78
2023/12/08 00:13:41;;;;;;;2.90;2.70;;;17.90;59.80;;;;;;4966079;28;20050;-76
2023/12/08 00:16:08;;;;;;;2.70;2.50;;;17.80;59.90;;;;;;4965974;28;20042;-75
2023/12/08 00:18:34;;;;;;;2.90;2.50;;;17.80;60.00;;;;;;4964820;28;20046;-76
2023/12/08 00:20:59;;;;;;;3.33;2.78;;;17.80;60.10;;;;;;4960957;28;20047;-76
2023/12/08 00:23:25;;;;;;;2.80;2.53;;;17.80;60.10;;;;;;4966118;28;20097;-76
2023/12/08 00:25:51;;;;;;;2.85;2.65;;;17.70;60.10;;;;;;4964210;28;20063;-76
2023/12/08 00:28:16;;;;;;;2.70;2.50;;;17.70;60.40;;;;;;4964915;28;20050;-76
2023/12/08 00:30:42;;;;;;;2.95;2.75;;;17.70;60.40;;;;;;4965813;28;20055;-77
2023/12/08 00:33:07;;;;;;;2.80;2.60;;;17.60;60.60;;;;;;4933926;28;20043;-78
2023/12/08 00:35:33;;;;;;;2.70;2.50;;;17.60;60.70;;;;;;4966796;28;20082;-78
2023/12/08 00:37:58;;;;;;;2.65;2.45;;;17.60;60.70;;;;;;4965526;28;20046;-78
2023/12/08 00:40:24;;;;;;;2.40;2.30;;;17.60;60.80;;;;;;4981397;28;20084;-79
2023/12/08 00:42:50;;;;;;;2.55;2.35;;;17.60;60.90;;;;;;4965990;28;20054;-78
2023/12/08 00:45:16;;;;;;;2.83;2.63;;;17.50;61.00;;;;;;4948297;28;20078;-78
2023/12/08 00:47:42;;;;;;;2.22;2.10;;;17.50;61.10;;;;;;4964064;28;20137;-78
2023/12/08 00:50:08;;;;;;;2.92;2.65;;;17.50;61.30;;;;;;4963040;28;20193;-79
2023/12/08 00:52:34;;;;;;;2.78;2.58;;;17.40;61.40;;;;;;4946736;28;20065;-79
2023/12/08 00:54:59;;;;;;;2.13;2.03;;;17.40;61.40;;;;;;4961725;28;20046;-79
2023/12/08 00:57:25;;;;;;;2.60;2.40;;;17.40;61.40;;;;;;4963900;28;20054;-79
2023/12/08 00:59:50;;;;;;;2.53;2.33;;;17.40;61.60;;;;;;4963868;28;20071;-79
2023/12/08 01:02:16;;;;;;;2.47;2.28;;;17.30;61.70;;;;;;4964765;28;20058;-79
2023/12/08 01:04:41;;;;;;;2.22;2.13;;;17.30;61.70;;;;;;4963707;28;20058;-79
2023/12/08 01:07:08;;;;;;;2.65;2.45;;;17.30;61.80;;;;;;4963626;28;20114;-79
2023/12/08 01:09:34;;;;;;;2.53;2.22;;;17.20;61.90;;;;;;4964194;28;20058;-79
2023/12/08 01:12:00;;;;;;;3.30;2.10;;;17.20;62.00;;;;;;4964448;28;20043;-79
2023/12/08 01:14:25;;;;;;;2.55;2.35;;;17.20;62.10;;;;;;4967381;28;20403;-79
2023/12/08 01:16:51;;;;;;;2.05;1.95;;;17.20;62.20;;;;;;4931687;28;20104;-78
2023/12/08 01:19:16;;;;;;;2.30;2.20;;;17.20;62.30;;;;;;4963001;28;20405;-79
2023/12/08 01:21:42;;;;;;;2.10;1.95;;;17.10;62.30;;;;;;4962966;28;20074;-79
2023/12/08 01:24:08;;;;;;;2.15;2.00;;;17.10;62.40;;;;;;4965492;28;20042;-79
2023/12/08 01:26:34;;;;;;;2.50;2.30;;;17.10;62.40;;;;;;4966903;28;20046;-79
2023/12/08 01:28:59;;;;;;;2.40;2.20;;;17.10;62.50;;;;;;4967550;28;20579;-79
2023/12/08 01:31:25;;;;;;;2.35;2.15;;;17.00;62.50;;;;;;4968544;28;20031;-79
2023/12/08 01:33:50;;;;;;;2.10;1.90;;;17.00;62.60;;;;;;4967123;28;20069;-76
2023/12/08 01:36:16;;;;;;;1.90;1.80;;;17.00;62.70;;;;;;4967022;28;20125;-76
2023/12/08 01:38:45;;;;;;;2.00;1.90;;;17.00;62.80;;;;;;4951178;28;20050;-76
2023/12/08 01:41:17;;;;;;;2.10;1.90;;;16.90;62.80;;;;;;4970807;28;20501;-76
2023/12/08 01:43:42;;;;;;;2.25;2.08;;;16.90;63.00;;;;;;4964317;28;20042;-76
2023/12/08 01:46:08;;;;;;;2.10;2.00;;;16.90;63.00;;;;;;4966531;28;20046;-78
2023/12/08 01:48:34;;;;;;;2.22;2.08;;;16.90;63.00;;;;;;4968463;28;20522;-79
2023/12/08 01:51:01;;;;;;;2.63;2.42;;;16.90;63.10;;;;;;4967363;28;20043;-79
2023/12/08 01:53:27;;;;;;;2.10;1.90;;;16.90;63.90;;;;;;4968296;28;20046;-79
2023/12/08 01:55:52;;;;;;;2.17;1.98;;;16.90;63.20;;;;;;4967971;28;20038;-79
2023/12/08 01:58:18;;;;;;;1.95;1.85;;;16.80;63.40;;;;;;4964988;28;20413;-81
2023/12/08 02:00:44;;;;;;;2.20;2.00;;;16.80;63.30;;;;;;4965098;28;20070;-79
2023/12/08 02:03:09;;;;;;;1.65;1.55;;;16.80;63.40;;;;;;4951937;28;20047;-78
2023/12/08 02:05:35;;;;;;;1.70;1.58;;;16.80;63.40;;;;;;4967758;28;20042;-79
2023/12/08 02:08:01;;;;;;;2.40;2.20;;;16.80;63.50;;;;;;4947187;28;20067;-78
2023/12/08 02:10:26;;;;;;;3.05;1.90;;;16.70;63.50;;;;;;4963919;28;20042;-79
2023/12/08 02:12:52;;;;;;;1.65;1.55;;;16.70;63.60;;;;;;4968804;28;20043;-78
2023/12/08 02:15:18;;;;;;;1.83;1.73;;;16.70;63.60;;;;;;4947476;28;20378;-78
2023/12/08 02:17:43;;;;;;;2.17;1.95;;;16.70;63.70;;;;;;4969719;28;20501;-78
2023/12/08 02:20:09;;;;;;;1.90;1.80;;;16.70;63.80;;;;;;4952189;28;20076;-78
2023/12/08 02:22:35;;;;;;;1.92;1.77;;;16.60;63.80;;;;;;4965237;28;20081;-78
2023/12/08 02:25:00;;;;;;;2.20;2.00;;;16.60;63.80;;;;;;4968971;28;20027;-78
2023/12/08 02:27:27;;;;;;;2.13;2.00;;;16.60;63.90;;;;;;4965069;28;20445;-79
2023/12/08 02:29:52;;;;;;;2.20;2.00;;;16.60;63.90;;;;;;4950191;28;20405;-78
2023/12/08 02:32:34;;;;;;;1.98;1.80;;;16.60;64.00;;;;;;4964918;28;20485;-78
2023/12/08 02:35:01;;;;;;;1.90;1.80;;;16.60;64.10;;;;;;4966038;28;20026;-79
2023/12/08 02:37:27;;;;;;;1.90;1.80;;;16.50;64.10;;;;;;4961231;28;20031;-79
2023/12/08 02:39:53;;;;;;;1.80;1.70;;;16.50;64.20;;;;;;4932327;28;20046;-79
2023/12/08 02:42:19;;;;;;;1.73;1.63;;;16.50;64.20;;;;;;4950973;28;20057;-79
2023/12/08 02:44:44;;;;;;;1.85;1.75;;;16.50;64.20;;;;;;4951230;28;20070;-79
2023/12/08 02:47:10;;;;;;;1.90;1.80;;;16.50;64.40;;;;;;4966026;28;20533;-79
2023/12/08 02:49:36;;;;;;;1.75;1.65;;;16.50;64.40;;;;;;4962078;28;20035;-79
2023/12/08 02:52:01;;;;;;;1.58;1.40;;;16.40;64.40;;;;;;4950108;28;20050;-79
2023/12/08 02:54:27;;;;;;;2.55;1.60;;;16.40;64.40;;;;;;4963924;28;20125;-79
2023/12/08 02:56:52;;;;;;;1.75;1.65;;;16.40;64.40;;;;;;4967604;28;20031;-79
2023/12/08 02:59:18;;;;;;;1.65;1.55;;;16.40;64.50;;;;;;4965882;28;20039;-79
2023/12/08 03:01:43;;;;;;;1.42;1.33;;;16.40;64.60;;;;;;4951338;28;20640;-79
2023/12/08 03:04:09;;;;;;;1.65;1.45;;;16.30;64.60;;;;;;4966330;28;20035;-77
2023/12/08 03:06:34;;;;;;;1.50;1.40;;;16.30;64.70;;;;;;4968786;28;20039;-77
2023/12/08 03:09:00;;;;;;;1.50;1.40;;;16.30;64.60;;;;;;4967284;28;20379;-79
2023/12/08 03:11:25;;;;;;;1.88;1.73;;;16.30;64.70;;;;;;4966851;28;20057;-80
2023/12/08 03:13:51;;;;;;;1.75;1.63;;;16.30;64.80;;;;;;4963784;28;20053;-78
2023/12/08 03:16:16;;;;;;;1.90;1.48;;;16.30;64.80;;;;;;4962138;28;20132;-78
2023/12/08 03:18:42;;;;;;;2.13;1.63;;;16.30;64.70;;;;;;4965295;28;20055;-79
2023/12/08 03:21:08;;;;;;;2.05;1.42;;;16.30;64.80;;;;;;4949446;28;20046;-79
2023/12/08 03:23:34;;;;;;;1.48;1.33;;;16.30;64.90;;;;;;4933330;28;20031;-79
2023/12/08 03:26:00;;;;;;;1.48;1.38;;;16.30;64.90;;;;;;4963437;28;20042;-79
2023/12/08 03:28:25;;;;;;;1.90;1.50;;;16.30;64.90;;;;;;4965908;28;20513;-78
2023/12/08 03:30:51;;;;;;;1.58;1.48;;;16.30;65.00;;;;;;4965484;28;20070;-78
2023/12/08 03:33:16;;;;;;;1.52;1.42;;;16.20;65.00;;;;;;4966333;28;20043;-78
2023/12/08 03:35:42;;;;;;;1.73;1.63;;;16.20;65.00;;;;;;4964834;28;20061;-78
2023/12/08 03:38:07;;;;;;;1.38;1.27;;;16.20;65.10;;;;;;4964218;28;20092;-78
2023/12/08 03:40:33;;;;;;;1.25;1.15;;;16.20;65.10;;;;;;4961801;28;20039;-79
2023/12/08 03:42:58;;;;;;;1.25;1.15;;;16.20;65.10;;;;;;4945793;28;20050;-79
2023/12/08 03:45:24;;;;;;;1.77;1.52;;;16.20;65.10;;;;;;4962699;28;20241;-80
2023/12/08 03:47:50;;;;;;;1.85;1.75;;;16.20;65.10;;;;;;4948837;28;20053;-79
2023/12/08 03:50:15;;;;;;;1.40;1.30;;;16.20;65.20;;;;;;4951678;28;20046;-79
2023/12/08 03:52:41;;;;;;;1.27;1.17;;;16.20;65.20;;;;;;4965965;28;20126;-78
2023/12/08 03:55:07;;;;;;;1.20;1.10;;;16.10;65.20;;;;;;4982301;28;20046;-78
2023/12/08 03:57:32;;;;;;;1.63;1.52;;;16.10;65.20;;;;;;4948424;28;20101;-78
2023/12/08 03:59:58;;;;;;;1.42;1.33;;;16.10;65.30;;;;;;4964704;28;20042;-79
2023/12/08 04:02:23;;;;;;;1.27;1.17;;;16.20;65.40;;;;;;4965491;28;20043;-79
2023/12/08 04:04:49;;;;;;;1.40;1.30;;;16.10;65.30;;;;;;4961376;28;20138;-78
2023/12/08 04:07:14;;;;;;;1.30;1.20;;;16.10;65.30;;;;;;4966261;28;20050;-79
2023/12/08 04:09:40;;;;;;;1.23;1.13;;;16.10;65.30;;;;;;4964865;28;20042;-79
2023/12/08 04:12:06;;;;;;;1.35;1.25;;;16.10;65.50;;;;;;4965343;28;20031;-79
2023/12/08 04:14:32;;;;;;;1.45;1.35;;;16.10;65.50;;;;;;4966873;28;20043;-79
2023/12/08 04:16:57;;;;;;;1.23;1.13;;;16.10;65.40;;;;;;4959331;28;20575;-78
2023/12/08 04:19:23;;;;;;;1.27;1.02;;;16.10;66.30;;;;;;4945669;28;20034;-78
2023/12/08 04:21:49;;;;;;;1.60;1.40;;;16.10;65.50;;;;;;4964289;28;20047;-79
2023/12/08 04:24:14;;;;;;;1.27;1.17;;;16.10;65.60;;;;;;4966144;28;20098;-78
2023/12/08 04:26:46;;;;;;;1.20;1.10;;;16.00;65.50;;;;;;4963899;28;20097;-78
2023/12/08 04:29:11;;;;;;;1.30;0.90;;;16.10;65.70;;;;;;4948908;28;20155;-78
2023/12/08 04:31:37;;;;;;;1.50;1.20;;;16.00;65.60;;;;;;4964181;28;20109;-79
2023/12/08 04:34:03;;;;;;;21.77;10.15;;;16.10;65.70;;;;;;4949951;28;20117;-79
2023/12/08 04:36:28;;;;;;;1.08;1.00;;;16.00;66.50;;;;;;4962237;28;20035;-79
2023/12/08 04:38:54;;;;;;;1.33;1.23;;;16.00;65.70;;;;;;4966086;28;20137;-78
2023/12/08 04:41:19;;;;;;;0.85;0.85;;;16.00;65.70;;;;;;4949116;28;20046;-78
2023/12/08 04:43:45;;;;;;;1.02;1.02;;;16.00;65.60;;;;;;4963876;28;20035;-79
2023/12/08 04:46:10;;;;;;;1.25;1.15;;;16.00;65.70;;;;;;4979328;28;20050;-78
2023/12/08 04:48:36;;;;;;;1.13;1.10;;;16.00;65.70;;;;;;4964023;28;20493;-78
2023/12/08 04:51:02;;;;;;;2.25;1.35;;;16.00;65.70;;;;;;4937328;28;20034;-79
2023/12/08 04:53:27;;;;;;;1.08;1.00;;;16.00;65.90;;;;;;4943091;28;20031;-78
2023/12/08 04:55:53;;;;;;;1.02;1.02;;;16.00;65.60;;;;;;4947669;28;20031;-79
2023/12/08 04:58:20;;;;;;;1.08;1.00;;;16.00;65.60;;;;;;4964631;28;20031;-79
2023/12/08 05:00:47;;;;;;;1.10;1.10;;;16.00;65.80;;;;;;4962955;28;20047;-78
2023/12/08 05:03:13;;;;;;;0.90;0.90;;;16.00;65.80;;;;;;4966640;28;20709;-79
2023/12/08 05:05:39;;;;;;;1.30;1.20;;;16.00;65.90;;;;;;4968535;28;20209;-79
2023/12/08 05:08:05;;;;;;;1.38;1.27;;;16.00;65.90;;;;;;4953247;28;20043;-79
2023/12/08 05:10:31;;;;;;;1.23;1.10;;;16.00;65.90;;;;;;4966053;28;20138;-79
2023/12/08 05:12:57;;;;;;;0.70;0.70;;;15.90;65.90;;;;;;4964562;28;20042;-79
2023/12/08 05:15:23;;;;;;;0.95;0.90;;;15.90;65.90;;;;;;4964857;28;20042;-78
2023/12/08 05:17:49;;;;;;;0.90;0.90;;;15.90;65.90;;;;;;4946528;28;20134;-79
2023/12/08 05:20:14;;;;;;;0.90;0.90;;;15.90;65.90;;;;;;4965952;28;20049;-78
2023/12/08 05:22:40;;;;;;;0.88;0.88;;;15.90;66.00;;;;;;4964760;28;20126;-79
2023/12/08 05:25:07;;;;;;;0.95;0.93;;;15.90;66.00;;;;;;4964743;28;20054;-78
2023/12/08 05:27:33;;;;;;;1.00;1.00;;;15.90;66.00;;;;;;4961048;28;20038;-79
2023/12/08 05:29:59;;;;;;;0.80;0.80;;;15.90;66.00;;;;;;4964694;28;20047;-78
2023/12/08 05:32:24;;;;;;;1.10;1.00;;;15.90;66.10;;;;;;4969227;28;20050;-78
2023/12/08 05:34:50;;;;;;;0.77;0.77;;;15.90;66.10;;;;;;4964737;28;20061;-78
2023/12/08 05:37:15;;;;;;;1.02;1.02;;;15.90;66.10;;;;;;4965162;28;20027;-78
2023/12/08 05:39:41;;;;;;;1.00;1.00;;;15.90;66.10;;;;;;4963182;28;20516;-78
2023/12/08 05:42:07;;;;;;;1.15;0.95;;;15.90;66.10;;;;;;4946529;28;20062;-78
2023/12/08 05:44:32;;;;;;;0.98;0.90;;;15.90;66.10;;;;;;4965073;28;20471;-79
2023/12/08 05:46:58;;;;;;;1.00;1.00;;;15.90;66.10;;;;;;4963580;28;20047;-79
2023/12/08 05:49:23;;;;;;;0.88;0.88;;;15.90;66.20;;;;;;4952244;28;20053;-78
2023/12/08 05:51:49;;;;;;;0.80;0.80;;;15.90;66.20;;;;;;4964676;28;20081;-79
2023/12/08 05:54:14;;;;;;;1.05;1.00;;;15.80;66.00;;;;;;4967307;28;20497;-79
2023/12/08 05:56:40;;;;;;;1.02;0.85;;;15.80;66.10;;;;;;4962697;28;20038;-79
2023/12/08 05:59:05;;;;;;;1.75;0.85;;;15.80;66.10;;;;;;4966159;28;20035;-79
2023/12/08 06:01:31;;;;;;;1.98;0.90;;;15.80;66.10;;;;;;4966228;28;20070;-79
2023/12/08 06:03:57;;;;;;;0.90;0.90;;;15.80;66.20;;;;;;4963553;28;20042;-79
2023/12/08 06:06:22;;;;;;;1.10;1.00;;;15.80;66.10;;;;;;4962413;28;20051;-78
2023/12/08 06:08:48;;;;;;;1.42;1.33;;;15.80;66.90;;;;;;4962427;28;20039;-79
2023/12/08 06:11:13;;;;;;;0.90;0.90;;;15.80;66.10;;;;;;4967408;28;20405;-78
2023/12/08 06:13:39;;;;;;;0.70;0.70;;;15.80;66.20;;;;;;4965191;28;20057;-79
2023/12/08 06:16:05;;;;;;;0.80;0.80;;;15.80;66.30;;;;;;4966991;28;20111;-79
2023/12/08 06:18:30;;;;;;;0.70;0.70;;;15.80;66.10;;;;;;4965463;28;20114;-78
2023/12/08 06:20:57;;;;;;;1.52;1.00;;;15.80;66.20;;;;;;4965401;28;20629;-79
2023/12/08 06:23:23;;;;;;;0.80;0.80;;;15.80;66.20;;;;;;4966169;28;20044;-79
2023/12/08 06:25:49;;;;;;;1.05;0.95;;;15.80;66.20;;;;;;4956185;28;20134;-78
2023/12/08 06:28:14;;;;;;;0.60;0.60;;;15.80;66.20;;;;;;4965180;28;20051;-78
2023/12/08 06:30:40;;;;;;;0.60;0.60;;;15.80;66.20;;;;;;4963328;28;20448;-79
2023/12/08 06:33:05;;;;;;;0.73;0.73;;;15.80;66.30;;;;;;4969843;28;20043;-79
2023/12/08 06:35:31;;;;;;;1.77;0.90;;;15.80;66.20;;;;;;4966198;28;20058;-79
2023/12/08 06:37:57;;;;;;;0.70;0.70;;;15.80;66.30;;;;;;4967901;28;20042;-79
2023/12/08 06:40:22;;;;;;;0.73;0.73;;;15.80;66.20;;;;;;4965563;28;20063;-79
2023/12/08 06:42:48;;;;;;;0.77;0.70;;;15.70;66.20;;;;;;4959724;28;20050;-79
2023/12/08 06:45:13;;;;;;;1.00;0.90;;;15.70;66.20;;;;;;4960213;28;20151;-79
2023/12/08 06:47:39;;;;;;;0.70;0.70;;;15.70;66.30;;;;;;4960952;28;20055;-79
2023/12/08 06:50:05;;;;;;;0.60;0.60;;;15.70;66.20;;;;;;4945253;28;20603;-79
2023/12/08 06:52:31;;;;;;;0.80;0.80;;;15.70;66.20;;;;;;4952351;28;20113;-79
2023/12/08 06:54:57;;;;;;;1.10;1.00;;;15.70;66.30;;;;;;4943824;28;20079;-79
2023/12/08 06:57:23;;;;;;;0.60;0.60;;;15.70;66.30;;;;;;4961817;28;20551;-77
2023/12/08 06:59:48;;;;;;;0.77;0.77;;;15.70;66.30;;;;;;4946968;28;20541;-77
2023/12/08 07:02:14;;;;;;;0.73;0.73;;;15.70;66.30;;;;;;4962552;28;20051;-77
2023/12/08 07:04:40;;;;;;;0.75;0.70;;;15.70;66.30;;;;;;4961816;28;20058;-78
2023/12/08 07:07:06;;;;;;;0.57;0.50;;;15.70;66.30;;;;;;4967744;28;20031;-79
2023/12/08 07:09:31;;;;;;;0.90;0.90;;;15.70;66.30;;;;;;4967163;28;20381;-77
2023/12/08 07:11:57;;;;;;;0.93;0.77;;;15.70;66.30;;;;;;4965764;28;20051;-77
2023/12/08 07:14:22;;;;;;;1.10;1.05;;;15.70;66.50;;;;;;4966701;28;20070;-77
2023/12/08 07:16:48;;;;;;;0.90;0.90;;;15.70;66.40;;;;;;4965112;28;20512;-77
2023/12/08 07:19:13;;;;;;;0.77;0.77;;;15.70;67.20;;;;;;4964717;28;20541;-77
2023/12/08 07:21:42;;;;;;;0.80;0.70;;;15.70;66.40;;;;;;4948718;28;20043;-78
2023/12/08 07:24:08;;;;;;;3.67;0.93;;;15.80;66.30;;;;;;4961353;28;20041;-78
2023/12/08 07:26:34;;;;;;;2.53;0.70;;;15.80;66.40;;;;;;4963290;28;20166;-78
2023/12/08 07:28:59;;;;;;;0.95;0.80;;;15.80;66.90;;;;;;4967395;28;20050;-77
2023/12/08 07:31:25;;;;;;;2.25;0.70;;;15.80;67.00;;;;;;4949852;28;20026;-79
2023/12/08 07:33:50;;;;;;;2.83;0.82;;;15.80;66.70;;;;;;4962201;28;20512;-79
2023/12/08 07:36:16;;;;;;;26.00;2.15;;;15.80;66.80;;;;;;4964164;28;20035;-76
2023/12/08 07:38:42;;;;;;;15.48;2.10;;;15.80;66.90;;;;;;4931576;28;20058;-77
2023/12/08 07:41:07;;;;;;;12.07;1.30;;;15.80;66.80;;;;;;4966543;28;20035;-77
2023/12/08 07:43:35;;;;;;;14.15;1.05;;;15.80;66.80;;;;;;4962962;28;20460;-76
2023/12/08 07:46:00;;;;;;;3.35;1.45;;;15.80;66.50;;;;;;4963546;28;20069;-77
2023/12/08 07:48:26;;;;;;;4.53;1.15;;;15.80;66.70;;;;;;4963947;28;20042;-78
2023/12/08 07:50:51;;;;;;;1.13;0.90;;;15.80;66.50;;;;;;4964424;28;20043;-78
2023/12/08 07:53:17;;;;;;;8.13;1.13;;;15.80;66.70;;;;;;4966054;28;20034;-78
2023/12/08 07:55:42;;;;;;;3.58;0.82;;;15.80;66.70;;;;;;4967276;28;20066;-77
2023/12/08 07:58:08;;;;;;;5.07;0.70;;;15.80;66.60;;;;;;4963102;28;20035;-77
2023/12/08 08:00:34;;;;;;;3.92;0.98;;;15.80;66.70;;;;;;4965126;28;20062;-77
2023/12/08 08:03:00;;;;;;;6.10;0.82;;;15.80;66.80;;;;;;4962869;28;20062;-78
2023/12/08 08:05:25;;;;;;;4.88;1.13;;;15.80;66.70;;;;;;4954314;28;20046;-79
2023/12/08 08:07:51;;;;;;;1.80;0.90;;;15.80;66.70;;;;;;4963091;28;20078;-77
2023/12/08 08:10:17;;;;;;;1.17;0.80;;;15.80;67.50;;;;;;4968132;28;20070;-78
2023/12/08 08:12:42;;;;;;;2.15;1.02;;;15.80;66.80;;;;;;4966628;28;20042;-78
2023/12/08 08:15:08;;;;;;;4.93;1.10;;;15.80;66.80;;;;;;4965993;28;20062;-79
2023/12/08 08:17:34;;;;;;;1.08;0.70;;;15.70;66.90;;;;;;4950230;28;20555;-77
2023/12/08 08:19:59;;;;;;;1.63;0.82;;;15.80;67.00;;;;;;4962786;28;20042;-77
2023/12/08 08:22:25;;;;;;;3.05;1.13;;;15.70;67.10;;;;;;4965324;28;20093;-78
2023/12/08 08:24:50;;;;;;;2.45;0.90;;;15.70;67.10;;;;;;4963979;28;20552;-77
2023/12/08 08:27:16;;;;;;;1.30;0.68;;;15.70;67.30;;;;;;4966924;28;20035;-76
2023/12/08 08:29:41;;;;;;;2.80;0.98;;;15.80;66.90;;;;;;4965655;28;20047;-76
2023/12/08 08:32:07;;;;;;;3.63;0.90;;;15.70;67.10;;;;;;4965853;28;20497;-74
2023/12/08 08:34:33;;;;;;;2.95;0.77;;;15.70;67.10;;;;;;4965386;28;20051;-75
2023/12/08 08:36:58;;;;;;;1.00;0.90;;;15.70;67.00;;;;;;4966190;28;20043;-76
2023/12/08 08:39:24;;;;;;;1.23;0.80;;;15.80;66.80;;;;;;4964031;28;20492;-75
2023/12/08 08:41:50;;;;;;;1.25;0.77;;;15.80;67.70;;;;;;4969228;28;20254;-76
2023/12/08 08:44:15;;;;;;;2.50;0.82;;;15.70;66.80;;;;;;4951600;28;20563;-75
2023/12/08 08:46:41;;;;;;;0.50;0.50;;;15.70;66.80;;;;;;4965182;28;20093;-75
2023/12/08 08:49:06;;;;;;;1.17;0.80;;;15.70;66.90;;;;;;4952379;28;20139;-76
2023/12/08 08:51:32;;;;;;;0.90;0.63;;;15.70;66.90;;;;;;4954592;28;20520;-75
2023/12/08 08:53:58;;;;;;;0.88;0.82;;;15.70;67.00;;;;;;4967978;28;20130;-76
2023/12/08 08:56:23;;;;;;;2.20;0.70;;;15.70;66.90;;;;;;4965506;28;20144;-76
2023/12/08 08:58:49;;;;;;;0.80;0.80;;;15.70;66.90;;;;;;4967503;28;20448;-77
2023/12/08 09:01:14;;;;;;;1.90;0.70;;;15.70;66.90;;;;;;4968791;28;20038;-76
2023/12/08 09:03:40;;;;;;;1.88;0.70;;;15.80;67.10;;;;;;4964559;28;20100;-76
2023/12/08 09:06:06;;;;;;;2.75;0.85;;;15.80;67.50;;;;;;4965826;28;20039;-75
2023/12/08 09:08:32;;;;;;;5.13;0.73;;;15.80;67.80;;;;;;4969250;28;20047;-75
2023/12/08 09:10:57;;;;;;;1.58;0.65;;;15.80;67.90;;;;;;4965204;28;20046;-75
2023/12/08 09:13:23;;;;;;;1.75;0.75;;;15.80;68.20;;;;;;4949798;28;20043;-75
2023/12/08 09:15:48;;;;;;;3.08;0.80;;;15.80;69.00;;;;;;4963209;28;20134;-76
2023/12/08 09:18:14;;;;;;;2.00;0.77;;;15.80;68.90;;;;;;4966924;28;20413;-75
2023/12/08 09:20:40;;;;;;;2.33;0.70;;;15.80;68.90;;;;;;4952641;28;20039;-75
2023/12/08 09:23:06;;;;;;;1.20;0.63;;;15.80;68.80;;;;;;4964441;28;20137;-75
2023/12/08 09:25:32;;;;;;;1.88;0.63;;;15.80;68.70;;;;;;4968363;28;20038;-76
2023/12/08 09:27:57;;;;;;;2.70;0.70;;;15.80;68.50;;;;;;4964073;28;20071;-75
2023/12/08 09:30:23;;;;;;;1.85;0.70;;;15.80;68.40;;;;;;4965377;28;20043;-75
2023/12/08 09:32:50;;;;;;;1.65;0.98;;;16.00;67.90;;;;;;4966497;28;20671;-74
2023/12/08 09:35:17;;;;;;;1.13;0.60;;;16.00;67.90;;;;;;4964806;28;20050;-74
2023/12/08 09:37:43;;;;;;;0.88;0.65;;;16.00;68.30;;;;;;4965552;28;20179;-74
2023/12/08 09:40:09;;;;;;;2.08;0.68;;;16.00;68.60;;;;;;4951907;28;20060;-74
2023/12/08 09:42:38;;;;;;;2.05;0.55;;;16.00;68.40;;;;;;4968267;28;20046;-75
2023/12/08 09:45:05;;;;;;;1.33;0.60;;;16.00;68.50;;;;;;4965459;28;20082;-75
2023/12/08 09:47:32;;;;;;;0.88;0.60;;;16.00;67.90;;;;;;4961101;28;20109;-76
2023/12/08 09:49:57;;;;;;;1.08;0.73;;;16.00;67.50;;;;;;4960274;28;20123;-76
2023/12/08 09:52:23;;;;;;;2.90;1.00;;;16.00;67.30;;;;;;4965518;28;20572;-75
2023/12/08 09:54:48;;;;;;;3.60;0.90;;;16.10;67.10;;;;;;4947409;28;20527;-76
2023/12/08 09:57:15;;;;;;;1.05;0.50;;;16.10;66.90;;;;;;4608810;28;10000194;-76
2023/12/08 09:59:41;;;;;;;0.68;0.60;;;16.10;66.90;;;;;;4960894;28;20118;-75
2023/12/08 10:02:14;;;;;;;0.77;0.63;;;16.20;66.70;;;;;;4896300;28;10000504;-76
2023/12/08 10:04:40;;;;;;;2.25;0.63;;;16.20;66.60;;;;;;4963712;28;20500;-75
2023/12/08 10:07:06;;;;;;;0.88;0.60;;;16.20;67.20;;;;;;4963160;28;20098;-75
2023/12/08 10:09:31;;;;;;;0.90;0.80;;;16.20;66.50;;;;;;4947903;28;20050;-75
2023/12/08 10:11:57;;;;;;;0.82;0.63;;;16.30;66.40;;;;;;4960742;28;20042;-76
2023/12/08 10:14:25;;;;;;;1.33;0.60;;;16.30;66.30;;;;;;4948509;28;20075;-76
2023/12/08 10:16:50;;;;;;;1.77;0.80;;;16.30;66.30;;;;;;4958386;28;20508;-75
2023/12/08 10:19:24;;;;;;;0.77;0.50;;;16.20;66.70;;;;;;4948446;28;20105;-75
2023/12/08 10:22:02;;;;;;;1.55;0.70;;;16.10;67.30;;;;;;4963851;28;20509;-75
2023/12/08 10:24:28;;;;;;;2.38;0.85;;;16.20;67.10;;;;;;4944593;28;20042;-75
2023/12/08 10:26:54;;;;;;;2.55;0.70;;;16.20;66.70;;;;;;4976700;28;20031;-76
2023/12/08 10:29:19;;;;;;;1.88;0.80;;;16.20;66.80;;;;;;4942355;28;20074;-75
2023/12/08 10:31:45;;;;;;;2.63;0.60;;;16.20;67.00;;;;;;4965474;28;20532;-76
2023/12/08 10:34:13;;;;;;;1.63;0.75;;;16.20;67.20;;;;;;4962367;28;20073;-77
2023/12/08 10:36:38;;;;;;;1.30;0.50;;;16.30;66.80;;;;;;4964220;28;20555;-76
2023/12/08 10:39:04;;;;;;;1.02;0.63;;;16.30;66.70;;;;;;4961908;28;20142;-76
2023/12/08 10:41:29;;;;;;;0.73;0.60;;;16.30;66.60;;;;;;4964243;28;20129;-76
2023/12/08 10:43:55;;;;;;;1.42;0.73;;;16.30;66.70;;;;;;4964040;28;20038;-75
2023/12/08 10:46:21;;;;;;;3.88;0.70;;;16.30;66.70;;;;;;4963571;28;20073;-76
2023/12/08 10:48:46;;;;;;;0.63;0.50;;;16.30;66.70;;;;;;4961884;28;20513;-76
2023/12/08 10:51:14;;;;;;;1.23;0.50;;;16.40;66.70;;;;;;4946288;28;20053;-76
2023/12/08 10:53:40;;;;;;;1.33;0.77;;;16.30;67.60;;;;;;4964760;28;20173;-76
2023/12/08 10:56:07;;;;;;;2.35;1.10;;;16.40;66.80;;;;;;4966580;28;20568;-76
2023/12/08 10:58:33;;;;;;;1.33;0.77;;;16.40;66.80;;;;;;4964639;28;20043;-76
2023/12/08 11:00:58;;;;;;;3.65;0.75;;;16.40;67.00;;;;;;4966322;28;20061;-76
2023/12/08 11:03:24;;;;;;;0.82;0.43;;;16.40;67.00;;;;;;4966914;28;20039;-76
2023/12/08 11:06:14;;;;;;;1.00;0.60;;;16.40;67.20;;;;;;4967934;28;20476;-77
2023/12/08 11:08:44;;;;;;;6.10;0.65;;;16.30;67.10;;;;;;4947442;28;20647;-76
2023/12/08 11:11:11;;;;;;;0.77;0.60;;;16.40;67.00;;;;;;4967980;28;20051;-76
2023/12/08 11:13:39;;;;;;;1.13;0.47;;;16.40;66.70;;;;;;4965933;28;20130;-76
2023/12/08 11:16:28;;;;;;;0.80;0.60;;;16.40;66.50;;;;;;4968682;28;20102;-76
2023/12/08 11:18:56;;;;;;;1.00;0.60;;;16.40;66.50;;;;;;4967879;28;20042;-77
2023/12/08 11:21:22;;;;;;;2.10;0.75;;;16.40;66.50;;;;;;4952653;28;20046;-76
2023/12/08 11:23:48;;;;;;;1.38;0.73;;;16.40;66.40;;;;;;4967108;28;20146;-76
2023/12/08 11:26:22;;;;;;;2.83;0.90;;;16.50;66.40;;;;;;4968343;28;20461;-76
2023/12/08 11:28:57;;;;;;;2.25;0.68;;;16.40;66.30;;;;;;4963232;28;20041;-76
2023/12/08 11:31:35;;;;;;;0.90;0.60;;;16.40;66.50;;;;;;4967817;28;20129;-76
2023/12/08 11:34:36;;;;;;;0.70;0.70;;;16.40;66.40;;;;;;4963402;28;20043;-75
2023/12/08 11:37:02;;;;;;;1.20;0.57;;;16.40;66.30;;;;;;4951212;28;20047;-77
2023/12/08 11:39:34;;;;;;;0.80;0.60;;;16.50;66.30;;;;;;4983700;28;20126;-76
2023/12/08 11:42:20;;;;;;;0.50;0.50;;;16.40;66.20;;;;;;4966333;28;20444;-76
2023/12/08 11:44:46;;;;;;;1.48;0.75;;;16.50;66.20;;;;;;4965396;28;20037;-76
2023/12/08 11:47:14;;;;;;;0.90;0.50;;;16.50;66.20;;;;;;4965431;28;20089;-76
2023/12/08 11:49:42;;;;;;;0.82;0.70;;;16.50;66.40;;;;;;4949168;28;20039;-76
2023/12/08 11:52:13;;;;;;;1.40;0.65;;;16.50;67.00;;;;;;4966599;28;20051;-76
2023/12/08 11:55:11;;;;;;;0.80;0.60;;;16.50;66.20;;;;;;4967674;28;20732;-76
2023/12/08 11:57:51;;;;;;;0.90;0.50;;;16.50;66.10;;;;;;4963981;28;20047;-76
2023/12/08 12:00:20;;;;;;;0.85;0.47;;;16.50;66.10;;;;;;4965468;28;20130;-76
2023/12/08 12:02:49;;;;;;;1.65;0.70;;;16.50;66.00;;;;;;4966879;28;20133;-76
2023/12/08 12:05:15;;;;;;;1.20;0.47;;;16.50;66.00;;;;;;4963332;28;20138;-77
2023/12/08 12:07:45;;;;;;;0.80;0.50;;;16.50;66.10;;;;;;4963106;28;20179;-76
2023/12/08 12:10:11;;;;;;;0.57;0.50;;;16.50;66.20;;;;;;4963706;28;20515;-76
2023/12/08 12:12:41;;;;;;;0.98;0.52;;;16.50;66.20;;;;;;4940219;28;20047;-76
2023/12/08 12:15:08;;;;;;;1.85;0.60;;;16.50;66.20;;;;;;4964355;28;20038;-76
2023/12/08 12:17:34;;;;;;;0.70;0.65;;;16.50;66.20;;;;;;4935443;28;20382;-76
2023/12/08 12:19:59;;;;;;;0.73;0.52;;;16.50;66.20;;;;;;4965601;28;20404;-84
2023/12/08 12:22:25;;;;;;;0.63;0.40;;;16.50;66.20;;;;;;4968241;28;20066;-84
2023/12/08 12:24:51;;;;;;;0.65;0.65;;;16.50;67.00;;;;;;4968492;28;20042;-84
2023/12/08 12:27:16;;;;;;;0.85;0.50;;;16.50;66.20;;;;;;4965349;28;20050;-84
2023/12/08 12:29:42;;;;;;;1.35;0.73;;;16.50;66.30;;;;;;4966422;28;20404;-84
2023/12/08 12:32:08;;;;;;;0.57;0.50;;;16.50;66.20;;;;;;4967469;28;20039;-84
2023/12/08 12:34:35;;;;;;;0.77;0.68;;;16.50;66.10;;;;;;4965699;28;20047;-84
2023/12/08 12:37:01;;;;;;;0.80;0.80;;;16.50;66.10;;;;;;4962841;28;20412;-83
2023/12/08 12:39:26;;;;;;;0.80;0.68;;;16.50;66.00;;;;;;4969009;28;20118;-84
2023/12/08 12:42:00;;;;;;;1.00;0.65;;;16.50;66.20;;;;;;4964779;28;20043;-84